MET5691 - Baltimore to Boston

Embraer ERJ-170LR
N920AU
1 hr 15 mins
321 nm
Scheduled - Daily

Bid/PiRep Status

Bid was submitted on Jan 02 2017.

PiRep # 74602: Approved by Sean Doyle on January 4th, 2017 23:10 UTC

Departure

Departing from
Baltimore (BWI)
Departure gate
Scheduled Departure
GMT 1310
Local 0910
METAR KBWI 252354Z 04009KT 4SM -RA BR OVC007 14/14 A2973 RMK AO2 DZB23E36RAB36 SLP068 P0000 60011 T01390139 10144 20139 58007
TAF KBWI 252340Z 2600/2706 05012KT 2SM -DZ BR OVC007 FM260300 04010KT 2SM -DZ BR OVC004 FM261100 36006KT 3SM BR OVC004 FM261500 33005KT P6SM OVC008 FM261800 33006KT P6SM OVC015 FM262300 VRB03KT P6SM SCT025

Arrival

Arriving at
Boston (BOS)
Arrival gate
Scheduled Arrival
GMT 1425
Local 1025
METAR KBOS 252306Z 04016G23KT 5SM -RA BR BKN007 OVC011 08/08 A3015 RMK AO2 P0000 T00830078
TAF KBOS 252001Z 2520/2624 05015G23KT 2SM SHRA BR BKN006 OVC012 FM252200 07014G22KT 3SM -SHRA BR OVC006 FM260000 07014KT 2SM SHRA BR OVC005 FM260800 08010KT 1 1/2SM -SHRA BR OVC003 WS020/14035KT FM261400 08009KT 2SM -SHRA BR OVC003 FM261800 11007KT 3SM BR VCS

Route Map

Planning Resources

PALEO3,HTO,WOONS1
OOD J42 RBV J222 JFK
SWANN3 DQO DAVYS J42 LAURN J222 JFK J225 NEWES INNDY2 CCC TELLE KENEE WOBUR EMMEL FIX 17
DCT SWANN DCT OOD J42 RBV J222 JFK KRANN3
ODD DAVYS BRAND RBV LAURN SANTT PACER HFD PUT
Route:
OFP Layout:
Units:
Detailed Navlog:
ETOPS Planning:
Plan Stepclimbs:
Runway Analysis:
Include NOTAMS:
FIR NOTAMS:
Flight Maps:

Return Flights

MET764
Airbus A321-232
2100 GMT
MET5690
Embraer ERJ-170LR
0122 GMT
MET5692
Embraer ERJ-170LR
1455 GMT
MET5764
Embraer ERJ-170LR
1135 GMT

Popularity

Hub Current Bids PiReps this month Total PiReps
KMCI 0 0 6
KLAX 0 0 2
KBOS 0 0 1